Time;durP1;ratioP1;P1;durP2;ratioP2;P2;SDS_P1;SDS_P2;PMS_P1;PMS_P2;Temp;Humidity;BMP_temperature;BMP_pressure;BME280_temperature;BME280_humidity;BME280_pressure;Samples;Min_cycle;Max_cycle;Signal;HPM_P1;HPM_P2
2023/10/26 00:00:10;;;;;;;1.67;0.90;;;11.40;99.90;;;;;;5031250;28;20540;-88
2023/10/26 00:02:37;;;;;;;1.60;0.90;;;11.40;99.90;;;;;;5033670;28;20210;-87
2023/10/26 00:05:04;;;;;;;3.20;0.80;;;11.30;99.90;;;;;;5032509;28;20198;-87
2023/10/26 00:07:32;;;;;;;1.67;1.00;;;11.30;99.90;;;;;;5031229;28;20561;-88
2023/10/26 00:09:59;;;;;;;1.13;0.85;;;11.30;99.90;;;;;;5029578;28;20205;-87
2023/10/26 00:12:26;;;;;;;1.40;1.10;;;11.20;99.90;;;;;;5031086;28;20209;-87
2023/10/26 00:14:54;;;;;;;0.85;0.80;;;11.20;99.90;;;;;;5028435;28;20647;-87
2023/10/26 00:17:22;;;;;;;1.38;0.80;;;11.20;99.90;;;;;;5030229;28;20198;-87
2023/10/26 00:19:48;;;;;;;0.90;0.70;;;11.10;99.90;;;;;;5032293;28;20666;-87
2023/10/26 00:22:15;;;;;;;0.88;0.75;;;11.10;99.90;;;;;;5028287;28;20218;-87
2023/10/26 00:24:42;;;;;;;0.82;0.82;;;11.10;99.90;;;;;;5030109;28;20201;-87
2023/10/26 00:27:09;;;;;;;0.95;0.88;;;11.10;99.90;;;;;;5025469;28;20199;-87
2023/10/26 00:29:37;;;;;;;0.85;0.85;;;11.00;99.90;;;;;;5029818;28;20205;-87
2023/10/26 00:32:08;;;;;;;0.70;0.70;;;11.00;99.90;;;;;;5027125;28;20202;-87
2023/10/26 00:34:37;;;;;;;1.08;0.70;;;11.00;99.90;;;;;;5032300;28;20214;-87
2023/10/26 00:37:04;;;;;;;0.52;0.52;;;11.00;99.90;;;;;;5030308;28;20194;-88
2023/10/26 00:39:31;;;;;;;1.23;1.13;;;11.10;99.90;;;;;;5031993;28;20198;-87
2023/10/26 00:41:58;;;;;;;1.63;0.80;;;11.10;99.90;;;;;;5014320;28;20198;-88
2023/10/26 00:44:25;;;;;;;3.38;3.05;;;11.20;99.90;;;;;;5033994;28;20205;-87
2023/10/26 00:46:53;;;;;;;0.80;0.68;;;11.20;99.00;;;;;;5031408;28;20202;-88
2023/10/26 00:49:24;;;;;;;4.38;3.50;;;11.30;98.30;;;;;;5031108;28;20822;-87
2023/10/26 00:51:54;;;;;;;1.05;0.80;;;11.40;97.90;;;;;;5034180;28;20564;-88
2023/10/26 00:54:23;;;;;;;3.33;0.77;;;11.30;98.10;;;;;;5036350;28;20198;-88
2023/10/26 00:56:51;;;;;;;1.00;0.70;;;11.30;97.10;;;;;;5028929;28;20205;-88
2023/10/26 00:59:18;;;;;;;3.33;2.90;;;11.40;97.10;;;;;;5028887;28;20194;-87
2023/10/26 01:01:47;;;;;;;1.13;0.90;;;11.50;96.90;;;;;;5028869;28;20210;-88
2023/10/26 01:04:15;;;;;;;0.77;0.57;;;11.50;96.70;;;;;;5028006;28;20214;-88
2023/10/26 01:06:44;;;;;;;1.10;0.60;;;11.50;96.10;;;;;;5039500;28;20191;-88
2023/10/26 01:09:11;;;;;;;1.17;0.80;;;11.50;96.10;;;;;;5022721;28;20198;-88
2023/10/26 01:11:39;;;;;;;0.77;0.63;;;11.60;95.70;;;;;;5028723;28;20260;-87
2023/10/26 01:14:07;;;;;;;1.38;0.75;;;11.60;96.00;;;;;;5028160;28;20198;-88
2023/10/26 01:16:34;;;;;;;1.02;0.52;;;11.60;95.30;;;;;;5030115;28;20197;-87
2023/10/26 01:19:01;;;;;;;1.92;0.93;;;11.60;95.00;;;;;;5032609;28;20195;-88
2023/10/26 01:21:32;;;;;;;0.90;0.75;;;11.60;95.20;;;;;;5046544;28;20190;-88
2023/10/26 01:23:59;;;;;;;1.77;0.80;;;11.50;95.90;;;;;;5046710;28;20217;-87
2023/10/26 01:26:26;;;;;;;0.68;0.68;;;11.50;95.50;;;;;;5038644;28;20198;-87
2023/10/26 01:28:53;;;;;;;1.20;1.10;;;11.40;95.80;;;;;;5033090;28;20221;-88
2023/10/26 01:31:20;;;;;;;1.13;0.68;;;11.30;96.00;;;;;;5033890;28;20213;-88
2023/10/26 01:33:47;;;;;;;0.65;0.65;;;11.30;96.00;;;;;;5035911;28;20193;-88
2023/10/26 01:36:14;;;;;;;2.00;0.75;;;11.30;96.00;;;;;;5032673;28;20197;-87
2023/10/26 01:38:44;;;;;;;0.55;0.55;;;11.20;96.00;;;;;;5033952;28;20195;-88
2023/10/26 01:41:11;;;;;;;0.85;0.85;;;11.20;96.30;;;;;;5033838;28;20654;-88
2023/10/26 01:43:38;;;;;;;0.68;0.63;;;11.10;96.00;;;;;;5033245;28;20960;-88
2023/10/26 01:46:05;;;;;;;1.65;1.23;;;11.00;96.00;;;;;;5027833;28;20256;-88
2023/10/26 01:48:32;;;;;;;0.70;0.70;;;11.00;96.50;;;;;;5028926;28;20659;-88
2023/10/26 01:50:59;;;;;;;2.17;0.73;;;10.90;96.20;;;;;;5033972;28;20222;-88
2023/10/26 01:53:27;;;;;;;0.85;0.70;;;10.90;96.70;;;;;;5037995;28;20553;-88
2023/10/26 01:55:56;;;;;;;0.80;0.80;;;10.80;97.10;;;;;;5026403;28;20187;-88
2023/10/26 01:58:23;;;;;;;0.65;0.60;;;10.70;97.40;;;;;;5032528;28;20205;-88
2023/10/26 02:00:49;;;;;;;0.98;0.98;;;10.70;97.70;;;;;;5034931;28;20210;-88
2023/10/26 02:03:18;;;;;;;3.13;2.33;;;10.70;97.00;;;;;;5031968;28;20777;-88
2023/10/26 02:05:45;;;;;;;1.00;0.98;;;10.80;96.60;;;;;;5034009;28;20348;-88
2023/10/26 02:08:11;;;;;;;0.60;0.60;;;10.80;96.50;;;;;;5031381;28;20201;-88
2023/10/26 02:10:41;;;;;;;0.82;0.80;;;10.80;96.50;;;;;;5035272;28;20790;-87
2023/10/26 02:13:09;;;;;;;0.73;0.73;;;10.70;96.60;;;;;;5036379;28;20216;-88
2023/10/26 02:15:36;;;;;;;2.00;0.90;;;10.70;97.20;;;;;;5035892;28;20191;-88
2023/10/26 02:18:03;;;;;;;0.80;0.80;;;10.70;96.90;;;;;;5034931;28;20647;-88
2023/10/26 02:20:30;;;;;;;0.95;0.70;;;10.60;97.20;;;;;;5034601;28;20709;-88
2023/10/26 02:22:57;;;;;;;0.60;0.60;;;10.60;97.30;;;;;;5034871;28;20215;-88
2023/10/26 02:25:24;;;;;;;0.68;0.68;;;10.50;98.00;;;;;;5029449;28;20211;-88
2023/10/26 02:27:51;;;;;;;1.38;0.70;;;10.50;98.00;;;;;;5030769;28;20244;-88
2023/10/26 02:30:20;;;;;;;2.15;0.80;;;10.50;98.10;;;;;;5034739;28;20201;-88
2023/10/26 02:32:47;;;;;;;1.27;0.80;;;10.50;97.90;;;;;;5032636;28;20194;-88
2023/10/26 02:35:15;;;;;;;1.27;0.88;;;10.40;97.90;;;;;;5032133;28;20199;-88
2023/10/26 02:37:42;;;;;;;0.75;0.75;;;10.50;97.50;;;;;;5031163;28;20199;-87
2023/10/26 02:40:10;;;;;;;2.10;0.60;;;10.50;97.40;;;;;;5033346;28;20201;-88
2023/10/26 02:42:38;;;;;;;1.58;1.15;;;10.50;97.40;;;;;;5029370;28;20221;-88
2023/10/26 02:45:06;;;;;;;0.80;0.70;;;10.60;96.50;;;;;;5022391;28;20222;-88
2023/10/26 02:47:37;;;;;;;0.98;0.80;;;10.70;96.30;;;;;;5027011;28;20206;-88
2023/10/26 02:50:05;;;;;;;1.42;0.60;;;10.70;96.00;;;;;;5031806;28;20186;-88
2023/10/26 02:52:32;;;;;;;2.95;1.65;;;10.80;95.90;;;;;;5015223;28;20344;-87
2023/10/26 02:54:58;;;;;;;0.52;0.50;;;10.80;95.90;;;;;;5032567;28;20198;-88
2023/10/26 02:57:25;;;;;;;0.77;0.70;;;10.80;95.90;;;;;;5031251;28;20252;-88
2023/10/26 02:59:52;;;;;;;2.20;0.70;;;10.70;95.90;;;;;;5028485;28;20199;-87
2023/10/26 03:02:19;;;;;;;0.55;0.55;;;10.70;95.90;;;;;;5033641;28;20206;-87
2023/10/26 03:04:47;;;;;;;0.98;0.88;;;10.70;95.90;;;;;;5032447;28;20222;-88
2023/10/26 03:07:21;;;;;;;1.55;1.45;;;10.70;95.90;;;;;;5030646;28;20194;-88
2023/10/26 03:09:47;;;;;;;1.45;1.35;;;10.60;95.90;;;;;;5032896;28;20237;-88
2023/10/26 03:12:14;;;;;;;1.02;0.82;;;10.60;95.90;;;;;;5033321;28;20194;-88
2023/10/26 03:14:41;;;;;;;2.15;0.80;;;10.60;95.90;;;;;;5036268;28;20198;-88
2023/10/26 03:17:09;;;;;;;0.50;0.50;;;10.60;95.90;;;;;;5032501;28;20518;-88
2023/10/26 03:19:36;;;;;;;0.93;0.60;;;10.50;95.80;;;;;;5032155;28;20647;-88
2023/10/26 03:22:03;;;;;;;0.70;0.60;;;10.40;96.50;;;;;;5033493;28;20191;-88
2023/10/26 03:24:31;;;;;;;1.15;0.60;;;10.30;96.70;;;;;;5024221;28;20221;-88
2023/10/26 03:26:58;;;;;;;0.60;0.60;;;10.20;97.10;;;;;;5032779;28;20191;-87
2023/10/26 03:29:25;;;;;;;0.68;0.68;;;10.20;97.60;;;;;;5026774;28;20199;-88
2023/10/26 03:31:52;;;;;;;0.90;0.70;;;10.10;97.70;;;;;;5028987;28;20190;-87
2023/10/26 03:34:19;;;;;;;0.57;0.55;;;10.00;98.10;;;;;;5031804;28;20198;-88
2023/10/26 03:36:46;;;;;;;0.70;0.70;;;10.00;98.00;;;;;;5028661;28;20191;-88
2023/10/26 03:39:15;;;;;;;0.80;0.80;;;9.90;98.30;;;;;;5031866;28;20191;-88
2023/10/26 03:41:42;;;;;;;0.60;0.60;;;9.90;98.60;;;;;;5032252;28;20198;-88
2023/10/26 03:44:09;;;;;;;2.67;1.95;;;9.90;98.40;;;;;;5032112;28;20213;-88
2023/10/26 03:46:36;;;;;;;1.20;1.08;;;10.00;98.70;;;;;;5030817;28;20202;-88
2023/10/26 03:49:03;;;;;;;3.97;1.70;;;10.10;98.10;;;;;;5029126;28;20198;-88
2023/10/26 03:51:29;;;;;;;1.45;0.77;;;10.30;98.60;;;;;;5029233;28;20219;-87
2023/10/26 03:53:56;;;;;;;0.82;0.68;;;10.30;98.00;;;;;;5027976;28;20636;-87
2023/10/26 03:56:25;;;;;;;2.20;0.73;;;10.10;97.70;;;;;;5032053;28;20197;-87
2023/10/26 03:58:52;;;;;;;0.55;0.55;;;10.00;98.10;;;;;;5032436;28;20209;-87
2023/10/26 04:01:19;;;;;;;0.75;0.60;;;9.90;98.40;;;;;;5024127;28;20585;-87
2023/10/26 04:03:46;;;;;;;2.03;0.80;;;9.80;98.50;;;;;;5030979;28;20227;-88
2023/10/26 04:06:12;;;;;;;2.50;0.80;;;9.80;98.30;;;;;;5029983;28;20194;-87
2023/10/26 04:08:39;;;;;;;2.08;0.80;;;9.80;98.30;;;;;;5014677;28;20454;-88
2023/10/26 04:11:06;;;;;;;1.20;1.10;;;9.90;98.60;;;;;;5029461;28;20202;-88
2023/10/26 04:13:35;;;;;;;1.17;1.00;;;10.00;98.50;;;;;;5028794;28;20201;-87
2023/10/26 04:16:02;;;;;;;1.70;1.50;;;10.00;97.80;;;;;;5027189;28;20198;-88
2023/10/26 04:18:29;;;;;;;0.80;0.80;;;10.10;98.00;;;;;;5027642;28;20206;-88
2023/10/26 04:20:56;;;;;;;0.88;0.73;;;10.20;97.90;;;;;;5032291;28;20191;-88
2023/10/26 04:23:24;;;;;;;0.73;0.68;;;10.10;97.50;;;;;;5030753;28;20218;-90
2023/10/26 04:25:51;;;;;;;0.85;0.85;;;10.00;97.20;;;;;;5036936;28;20281;-88
2023/10/26 04:28:18;;;;;;;1.00;0.90;;;9.80;97.90;;;;;;5032227;28;20198;-88
2023/10/26 04:33:30;;;;;;;0.80;0.65;;;9.70;98.30;;;;;;5037803;28;20202;-89
2023/10/26 04:36:00;;;;;;;1.38;0.80;;;9.60;98.90;;;;;;5040640;28;20221;-88
2023/10/26 04:38:27;;;;;;;0.77;0.70;;;9.50;99.20;;;;;;5041966;28;20202;-86
2023/10/26 04:40:54;;;;;;;1.25;0.70;;;9.50;99.10;;;;;;5015151;28;20202;-86
2023/10/26 04:43:21;;;;;;;0.70;0.70;;;9.50;99.20;;;;;;5025963;28;20237;-88
2023/10/26 04:45:50;;;;;;;1.85;0.80;;;9.60;99.70;;;;;;5027790;28;20285;-87
2023/10/26 04:48:17;;;;;;;0.80;0.80;;;9.60;99.50;;;;;;5004033;28;20245;-87
2023/10/26 04:50:46;;;;;;;0.95;0.80;;;9.50;99.60;;;;;;5027354;28;20671;-89
2023/10/26 04:53:13;;;;;;;0.95;0.80;;;9.50;99.90;;;;;;5022971;28;20202;-87
2023/10/26 04:55:40;;;;;;;1.08;0.95;;;9.60;99.40;;;;;;5030109;28;20209;-87
2023/10/26 04:58:07;;;;;;;1.10;0.77;;;9.50;99.50;;;;;;5027782;28;20198;-88
2023/10/26 05:00:36;;;;;;;0.80;0.80;;;9.50;99.70;;;;;;5031876;28;20639;-88
2023/10/26 05:03:04;;;;;;;1.55;0.95;;;9.50;99.80;;;;;;5024257;28;20217;-88
2023/10/26 05:05:31;;;;;;;2.13;1.10;;;9.50;99.80;;;;;;5025666;28;20219;-88
2023/10/26 05:07:58;;;;;;;0.88;0.73;;;9.40;99.70;;;;;;5029676;28;20209;-89
2023/10/26 05:10:25;;;;;;;1.25;0.80;;;9.40;99.90;;;;;;5028456;28;20200;-88
2023/10/26 05:12:53;;;;;;;1.05;0.73;;;9.40;99.90;;;;;;5026294;28;20236;-92
2023/10/26 05:15:20;;;;;;;2.78;1.00;;;9.30;99.90;;;;;;5026659;28;20208;-88
2023/10/26 05:17:47;;;;;;;0.75;0.75;;;9.40;99.90;;;;;;5026639;28;20194;-88
2023/10/26 05:20:15;;;;;;;1.27;1.00;;;9.40;99.90;;;;;;5027985;28;20195;-88
2023/10/26 05:22:42;;;;;;;1.33;0.98;;;9.40;99.90;;;;;;5038714;28;20201;-91
2023/10/26 05:25:11;;;;;;;1.33;1.20;;;9.40;99.90;;;;;;5030538;28;20214;-88
2023/10/26 05:27:38;;;;;;;2.28;0.77;;;9.40;99.90;;;;;;5023297;28;20300;-88
2023/10/26 05:30:07;;;;;;;2.35;1.10;;;9.30;99.90;;;;;;5030977;28;20191;-88
2023/10/26 05:32:37;;;;;;;1.23;1.10;;;9.30;99.90;;;;;;5031688;28;20206;-87
2023/10/26 05:35:05;;;;;;;1.83;1.42;;;9.40;99.90;;;;;;5030074;28;20198;-88
2023/10/26 05:37:34;;;;;;;2.65;1.33;;;9.50;99.90;;;;;;5023657;28;20222;-88
2023/10/26 05:40:01;;;;;;;2.30;1.00;;;9.50;99.90;;;;;;5029695;28;20286;-88
2023/10/26 05:42:28;;;;;;;1.40;1.30;;;9.60;99.90;;;;;;5028880;28;20198;-88
2023/10/26 05:44:56;;;;;;;2.90;0.95;;;9.80;99.90;;;;;;5028749;28;20222;-88
2023/10/26 05:47:23;;;;;;;1.55;1.30;;;9.90;99.90;;;;;;5024288;28;20202;-88
2023/10/26 05:49:50;;;;;;;1.30;1.00;;;9.90;99.90;;;;;;5012531;28;20191;-88
2023/10/26 05:52:17;;;;;;;1.38;0.88;;;9.90;99.90;;;;;;5027838;28;20284;-88
2023/10/26 05:54:46;;;;;;;1.25;0.93;;;9.90;99.90;;;;;;5030554;28;20639;-89
2023/10/26 05:57:14;;;;;;;1.52;1.00;;;10.00;99.90;;;;;;5030085;28;20203;-88
2023/10/26 05:59:41;;;;;;;3.45;1.05;;;10.10;99.90;;;;;;5027565;28;20203;-88
2023/10/26 06:02:08;;;;;;;1.92;1.30;;;10.10;99.40;;;;;;5029838;28;20551;-88
2023/10/26 06:04:35;;;;;;;1.90;1.30;;;10.10;99.90;;;;;;5031613;28;20342;-88
2023/10/26 06:07:02;;;;;;;1.88;1.20;;;10.10;99.90;;;;;;5027474;28;20202;-88
2023/10/26 06:09:29;;;;;;;1.95;1.38;;;10.10;99.90;;;;;;5030503;28;20203;-88
2023/10/26 06:11:58;;;;;;;1.40;1.20;;;10.00;99.90;;;;;;5033125;28;20190;-88
2023/10/26 06:14:24;;;;;;;1.85;1.30;;;10.00;99.90;;;;;;5034103;28;20204;-88
2023/10/26 06:16:51;;;;;;;1.85;1.50;;;10.00;99.90;;;;;;5030264;28;20207;-88
2023/10/26 06:19:18;;;;;;;2.97;1.35;;;10.10;99.90;;;;;;5033316;28;20198;-88
2023/10/26 06:21:45;;;;;;;1.75;1.02;;;10.10;99.90;;;;;;5032689;28;20273;-88
2023/10/26 06:24:12;;;;;;;0.82;0.73;;;10.30;99.90;;;;;;5035357;28;20215;-88
2023/10/26 06:26:39;;;;;;;2.55;0.98;;;10.30;99.90;;;;;;5032088;28;20240;-88
2023/10/26 06:29:07;;;;;;;1.30;1.00;;;10.40;99.90;;;;;;5030937;28;20209;-88
2023/10/26 06:31:34;;;;;;;1.25;0.90;;;10.40;99.90;;;;;;5031512;28;20201;-88
2023/10/26 06:34:01;;;;;;;0.77;0.77;;;10.40;99.90;;;;;;5032772;28;20202;-88
2023/10/26 06:36:28;;;;;;;1.88;0.70;;;10.50;99.90;;;;;;5034846;28;20643;-88
2023/10/26 06:38:56;;;;;;;1.05;0.70;;;10.50;99.90;;;;;;5032837;28;20207;-88
2023/10/26 06:41:23;;;;;;;1.63;0.90;;;10.50;99.90;;;;;;5036580;28;20643;-88
2023/10/26 06:43:51;;;;;;;1.35;0.90;;;10.50;99.90;;;;;;5033274;28;20198;-88
2023/10/26 06:46:21;;;;;;;0.93;0.70;;;10.40;99.90;;;;;;5033959;28;20197;-88
2023/10/26 06:48:48;;;;;;;1.50;0.90;;;10.50;99.90;;;;;;5031842;28;20609;-88
2023/10/26 06:51:15;;;;;;;1.38;0.80;;;10.60;99.90;;;;;;5034111;28;20214;-88
2023/10/26 06:53:42;;;;;;;1.38;1.10;;;10.60;99.90;;;;;;5033438;28;20691;-88
2023/10/26 06:56:12;;;;;;;2.63;0.90;;;10.60;99.90;;;;;;5032561;28;20199;-88
2023/10/26 06:58:39;;;;;;;1.70;0.85;;;10.70;99.90;;;;;;5032578;28;20195;-88
2023/10/26 07:01:11;;;;;;;1.00;1.00;;;10.70;99.90;;;;;;5034188;28;20203;-88
2023/10/26 07:03:39;;;;;;;1.20;1.00;;;10.70;99.90;;;;;;5034670;28;20545;-88
2023/10/26 07:06:07;;;;;;;1.15;0.90;;;10.70;99.90;;;;;;5033231;28;20226;-88
2023/10/26 07:08:34;;;;;;;1.25;0.90;;;10.70;99.90;;;;;;5032699;28;20210;-88
2023/10/26 07:11:05;;;;;;;1.02;0.80;;;10.80;99.90;;;;;;5035852;28;20198;-88
2023/10/26 07:13:32;;;;;;;1.27;1.00;;;10.90;99.90;;;;;;5031442;28;20554;-88
2023/10/26 07:16:01;;;;;;;1.45;1.00;;;10.80;99.90;;;;;;5028160;28;20195;-88
2023/10/26 07:18:28;;;;;;;3.33;1.00;;;10.80;99.90;;;;;;5016193;28;20596;-87
2023/10/26 07:21:06;;;;;;;1.38;1.27;;;10.80;99.90;;;;;;5029442;28;20212;-87
2023/10/26 07:23:35;;;;;;;2.10;1.15;;;10.90;99.90;;;;;;5031486;28;20594;-88
2023/10/26 07:26:02;;;;;;;2.08;0.98;;;11.00;99.90;;;;;;5041155;28;20226;-88
2023/10/26 07:28:29;;;;;;;2.08;1.15;;;11.00;99.90;;;;;;5029617;28;20280;-87
2023/10/26 07:30:58;;;;;;;4.47;3.20;;;11.00;99.90;;;;;;5027921;28;20199;-88
2023/10/26 07:33:25;;;;;;;0.88;0.80;;;11.00;99.90;;;;;;5032529;28;20581;-87
2023/10/26 07:35:55;;;;;;;2.03;1.05;;;11.10;99.90;;;;;;5032058;28;20198;-88
2023/10/26 07:38:34;;;;;;;0.85;0.80;;;11.10;99.90;;;;;;5034318;28;20203;-88
2023/10/26 07:41:03;;;;;;;1.00;0.82;;;11.20;99.90;;;;;;5034088;28;20189;-88
2023/10/26 07:43:30;;;;;;;1.27;1.02;;;11.30;99.90;;;;;;5041458;28;20214;-88
2023/10/26 07:45:57;;;;;;;1.27;0.93;;;11.40;99.90;;;;;;5042384;28;20222;-88
2023/10/26 07:48:24;;;;;;;4.60;1.40;;;11.40;99.90;;;;;;5053099;28;20202;-88
2023/10/26 07:50:51;;;;;;;1.13;0.90;;;11.40;99.90;;;;;;5056346;28;20245;-88
2023/10/26 07:53:18;;;;;;;1.10;0.85;;;11.80;99.90;;;;;;5036911;28;20198;-88
2023/10/26 07:55:47;;;;;;;1.10;0.93;;;12.00;99.90;;;;;;5029081;28;20205;-88
2023/10/26 07:58:14;;;;;;;0.93;0.80;;;12.20;99.90;;;;;;5037242;28;20284;-88
2023/10/26 08:00:44;;;;;;;0.80;0.80;;;12.40;99.90;;;;;;5034192;28;20209;-88
2023/10/26 08:03:11;;;;;;;0.60;0.60;;;12.40;99.90;;;;;;5030413;28;20706;-88
2023/10/26 08:05:39;;;;;;;1.23;0.98;;;12.30;99.90;;;;;;4994961;28;20880;-88
2023/10/26 08:08:06;;;;;;;1.13;0.70;;;12.30;99.90;;;;;;5031537;28;20762;-88
2023/10/26 08:10:36;;;;;;;3.10;0.95;;;12.20;99.90;;;;;;5028178;28;20204;-88
2023/10/26 08:15:47;;;;;;;1.10;1.00;;;12.10;99.90;;;;;;5034804;28;20281;-88
2023/10/26 08:18:14;;;;;;;0.80;0.80;;;12.10;99.90;;;;;;5030741;28;20191;-88
2023/10/26 08:20:41;;;;;;;1.73;1.00;;;12.10;99.90;;;;;;5031464;28;20186;-88
2023/10/26 08:23:08;;;;;;;1.40;1.02;;;12.20;99.90;;;;;;5004954;28;20206;-88
2023/10/26 08:25:36;;;;;;;1.38;0.88;;;12.30;99.90;;;;;;5030360;28;20630;-88
2023/10/26 08:30:46;;;;;;;1.17;0.90;;;12.30;99.90;;;;;;5035249;28;20638;-88
2023/10/26 08:33:14;;;;;;;2.00;1.00;;;12.30;99.90;;;;;;5029962;28;20198;-88
2023/10/26 08:35:49;;;;;;;1.25;0.88;;;12.50;99.90;;;;;;5033327;28;20666;-87
2023/10/26 08:38:16;;;;;;;1.70;0.80;;;12.60;99.90;;;;;;5031848;28;20197;-88
2023/10/26 08:40:50;;;;;;;0.80;0.80;;;12.70;99.90;;;;;;5037480;28;20195;-87
2023/10/26 08:43:19;;;;;;;0.80;0.65;;;12.70;99.90;;;;;;5036775;28;20187;-87
2023/10/26 08:45:47;;;;;;;1.10;1.00;;;12.60;99.90;;;;;;5029295;28;20697;-88
2023/10/26 08:48:16;;;;;;;3.15;1.10;;;12.60;99.90;;;;;;5034682;28;20285;-88
2023/10/26 08:51:04;;;;;;;0.85;0.80;;;12.60;99.90;;;;;;5028147;28;20225;-88
2023/10/26 08:53:31;;;;;;;1.40;1.00;;;12.60;99.90;;;;;;5028738;28;20627;-88
2023/10/26 08:55:59;;;;;;;1.10;0.70;;;12.50;99.90;;;;;;5029939;28;20202;-87
2023/10/26 08:58:28;;;;;;;0.60;0.60;;;12.50;99.90;;;;;;5032318;28;20222;-87
2023/10/26 09:00:55;;;;;;;1.10;1.00;;;12.50;99.90;;;;;;5030567;28;20195;-87
2023/10/26 09:03:22;;;;;;;1.35;0.75;;;12.40;99.90;;;;;;4994474;28;20606;-87
2023/10/26 09:05:55;;;;;;;1.10;1.00;;;12.20;99.90;;;;;;5027386;28;20218;-87
2023/10/26 09:08:23;;;;;;;1.20;0.80;;;12.10;99.90;;;;;;5031131;28;20573;-87
2023/10/26 09:10:51;;;;;;;1.02;0.90;;;11.90;99.90;;;;;;5031622;28;20212;-87
2023/10/26 09:13:24;;;;;;;1.02;0.88;;;11.90;99.90;;;;;;5030593;28;20198;-88
2023/10/26 09:15:54;;;;;;;2.42;1.10;;;12.00;99.90;;;;;;5030281;28;20639;-88
2023/10/26 09:18:22;;;;;;;1.48;0.90;;;12.00;99.90;;;;;;5036536;28;20198;-88
2023/10/26 09:21:04;;;;;;;2.83;1.15;;;12.10;99.90;;;;;;5030009;28;20196;-88
2023/10/26 09:23:33;;;;;;;1.00;0.90;;;12.10;99.90;;;;;;5029829;28;20211;-88
2023/10/26 09:26:01;;;;;;;2.80;1.20;;;12.00;99.90;;;;;;5008774;28;20228;-88
2023/10/26 09:28:28;;;;;;;1.17;1.02;;;12.00;99.90;;;;;;5028744;28;20636;-87
2023/10/26 09:31:02;;;;;;;2.78;1.08;;;12.00;99.90;;;;;;5031701;28;20198;-88
2023/10/26 09:33:29;;;;;;;3.05;0.90;;;11.90;99.90;;;;;;5030490;28;20205;-88
2023/10/26 09:36:10;;;;;;;1.20;1.10;;;11.90;99.90;;;;;;5032261;28;20201;-88
2023/10/26 09:38:37;;;;;;;1.83;1.15;;;11.90;99.90;;;;;;5030064;28;20217;-88
2023/10/26 09:41:07;;;;;;;1.30;1.20;;;11.90;99.90;;;;;;5023569;28;20202;-88
2023/10/26 09:43:34;;;;;;;1.55;1.38;;;11.90;99.90;;;;;;5030666;28;20193;-87
2023/10/26 09:46:04;;;;;;;2.00;1.08;;;11.80;99.90;;;;;;5033199;28;20210;-87
2023/10/26 09:48:30;;;;;;;1.73;1.10;;;11.90;99.90;;;;;;5031781;28;20627;-87
2023/10/26 09:51:00;;;;;;;1.65;1.33;;;11.90;99.90;;;;;;5035056;28;20220;-87
2023/10/26 09:53:33;;;;;;;2.45;0.98;;;11.80;99.90;;;;;;5034643;28;20202;-88
2023/10/26 09:56:02;;;;;;;1.10;1.10;;;11.80;99.90;;;;;;5019280;28;20210;-87
2023/10/26 09:58:35;;;;;;;2.28;1.10;;;11.80;99.90;;;;;;5034677;28;20203;-87
2023/10/26 10:01:34;;;;;;;1.83;1.33;;;11.90;99.90;;;;;;5031970;28;20622;-88
2023/10/26 10:04:01;;;;;;;1.58;1.13;;;12.00;99.90;;;;;;5032105;28;20716;-87
2023/10/26 10:06:51;;;;;;;1.73;1.30;;;11.90;99.90;;;;;;5030747;28;20218;-88
2023/10/26 10:09:20;;;;;;;1.55;1.25;;;11.90;99.90;;;;;;5030190;28;20249;-88
2023/10/26 10:12:15;;;;;;;2.55;1.13;;;11.90;99.90;;;;;;5033807;28;20224;-88
2023/10/26 10:15:00;;;;;;;1.50;1.13;;;11.90;99.90;;;;;;5032884;28;20208;-87
2023/10/26 10:18:13;;;;;;;1.10;0.95;;;11.80;99.90;;;;;;5035178;28;20205;-88
2023/10/26 10:20:42;;;;;;;1.25;1.10;;;11.80;99.90;;;;;;4992393;28;20204;-88
2023/10/26 10:23:10;;;;;;;1.33;1.05;;;11.90;99.90;;;;;;5025100;28;20198;-88
2023/10/26 10:26:10;;;;;;;1.20;1.10;;;11.90;99.90;;;;;;5035258;28;20214;-88
2023/10/26 10:28:48;;;;;;;1.58;1.20;;;11.90;99.90;;;;;;5031398;28;20222;-87
2023/10/26 10:31:26;;;;;;;1.17;0.90;;;11.80;99.90;;;;;;5027910;28;20206;-88
2023/10/26 10:34:05;;;;;;;1.73;1.40;;;11.80;99.90;;;;;;5033479;28;20202;-88
2023/10/26 10:37:14;;;;;;;1.20;1.10;;;11.70;99.90;;;;;;5034309;28;20199;-88
2023/10/26 10:40:12;;;;;;;0.95;0.95;;;11.70;99.90;;;;;;5035702;28;20197;-87
2023/10/26 10:42:40;;;;;;;1.48;1.02;;;12.10;99.90;;;;;;5025628;28;20209;-87
2023/10/26 10:45:11;;;;;;;1.25;1.15;;;12.00;99.90;;;;;;5028241;28;20207;-87
2023/10/26 10:47:38;;;;;;;1.08;1.00;;;11.90;99.90;;;;;;5027999;28;20240;-87
2023/10/26 10:50:15;;;;;;;2.80;1.25;;;12.00;99.90;;;;;;5033945;28;20198;-88
2023/10/26 10:52:44;;;;;;;1.65;0.98;;;12.10;99.90;;;;;;5026528;28;20210;-87
2023/10/26 10:55:11;;;;;;;1.20;1.10;;;12.10;99.90;;;;;;5035092;28;20190;-87
2023/10/26 10:57:52;;;;;;;2.28;1.20;;;11.90;99.90;;;;;;5036148;28;20194;-88
2023/10/26 11:00:19;;;;;;;3.22;1.10;;;11.80;99.90;;;;;;5026436;28;20262;-88
2023/10/26 11:02:47;;;;;;;1.30;1.20;;;11.80;99.90;;;;;;5037169;28;20195;-88
2023/10/26 11:05:17;;;;;;;2.88;1.20;;;11.80;99.90;;;;;;5037477;28;20194;-87
2023/10/26 11:07:47;;;;;;;1.48;1.38;;;12.00;99.90;;;;;;5036255;28;20198;-87
2023/10/26 11:10:14;;;;;;;2.15;1.45;;;12.20;99.90;;;;;;5028351;28;20237;-87
2023/10/26 11:12:49;;;;;;;1.30;1.20;;;12.40;99.90;;;;;;5032146;28;20278;-86
2023/10/26 11:15:16;;;;;;;1.30;1.20;;;12.60;99.90;;;;;;5033815;28;20182;-87
2023/10/26 11:17:43;;;;;;;2.08;1.63;;;12.50;99.90;;;;;;5031748;28;20592;-87
2023/10/26 11:20:36;;;;;;;1.85;1.60;;;12.50;99.90;;;;;;5028527;28;20203;-87
2023/10/26 11:25:48;;;;;;;1.67;1.50;;;12.50;99.90;;;;;;5031564;28;20221;-87
2023/10/26 11:28:15;;;;;;;2.78;1.45;;;12.70;99.90;;;;;;5032786;28;20194;-88
2023/10/26 11:30:49;;;;;;;1.50;1.40;;;12.90;99.90;;;;;;5031696;28;20281;-89
2023/10/26 11:33:39;;;;;;;1.27;1.17;;;13.10;99.90;;;;;;5027982;28;20185;-88
2023/10/26 11:36:09;;;;;;;1.80;0.90;;;13.30;99.90;;;;;;5028431;28;20202;-88
2023/10/26 11:38:46;;;;;;;0.90;0.90;;;13.60;99.90;;;;;;5014944;28;20207;-89
2023/10/26 11:41:20;;;;;;;0.90;0.90;;;13.80;99.90;;;;;;5027553;28;20191;-87
2023/10/26 11:43:47;;;;;;;1.83;1.30;;;14.00;99.90;;;;;;5028039;28;20194;-86
2023/10/26 11:46:14;;;;;;;1.35;0.90;;;14.10;99.90;;;;;;5028312;28;20635;-86
2023/10/26 11:48:41;;;;;;;1.13;0.98;;;14.20;99.90;;;;;;5032643;28;20205;-86
2023/10/26 11:51:09;;;;;;;2.25;1.00;;;14.30;99.90;;;;;;5023055;28;20215;-87
2023/10/26 11:53:38;;;;;;;3.20;1.08;;;14.40;99.90;;;;;;5031869;28;20245;-87
2023/10/26 11:56:06;;;;;;;2.05;1.08;;;14.40;99.90;;;;;;5030392;28;20268;-87
2023/10/26 11:58:35;;;;;;;1.23;0.80;;;14.40;99.90;;;;;;5030555;28;20246;-86
2023/10/26 12:01:03;;;;;;;1.42;1.15;;;14.40;99.90;;;;;;5029467;28;20206;-86
2023/10/26 12:03:30;;;;;;;1.00;0.90;;;14.60;99.90;;;;;;5032440;28;20226;-86
2023/10/26 12:05:57;;;;;;;1.15;0.93;;;14.80;99.90;;;;;;5028498;28;20233;-87
2023/10/26 12:08:24;;;;;;;2.42;0.98;;;14.80;99.90;;;;;;5022512;28;20199;-87
2023/10/26 12:10:52;;;;;;;1.17;1.08;;;15.00;99.90;;;;;;5028367;28;20210;-88
2023/10/26 12:13:19;;;;;;;1.73;1.30;;;14.90;99.90;;;;;;5029899;28;20202;-87
2023/10/26 12:15:46;;;;;;;1.70;1.30;;;15.10;99.90;;;;;;5015299;28;20204;-88
2023/10/26 12:18:13;;;;;;;1.27;0.93;;;15.10;99.90;;;;;;5029246;28;20199;-87
2023/10/26 12:20:40;;;;;;;0.90;0.90;;;15.20;99.90;;;;;;5027352;28;20190;-87
2023/10/26 12:23:07;;;;;;;2.05;0.90;;;15.20;99.90;;;;;;5022937;28;20237;-88
2023/10/26 12:25:34;;;;;;;1.92;0.90;;;15.20;99.90;;;;;;5031062;28;20217;-88
2023/10/26 12:28:03;;;;;;;2.00;0.90;;;15.30;99.90;;;;;;5029430;28;20214;-87
2023/10/26 12:30:31;;;;;;;1.63;0.90;;;15.20;99.90;;;;;;5029356;28;21087;-89
2023/10/26 12:32:58;;;;;;;1.10;1.00;;;15.20;99.90;;;;;;5024619;28;20308;-90
2023/10/26 12:35:25;;;;;;;1.10;1.00;;;15.00;99.90;;;;;;5027921;28;20198;-88
2023/10/26 12:37:52;;;;;;;2.65;1.10;;;15.10;99.90;;;;;;5031924;28;20205;-88
2023/10/26 12:40:20;;;;;;;1.13;1.02;;;15.20;99.90;;;;;;5030661;28;20609;-88
2023/10/26 12:42:47;;;;;;;1.30;0.90;;;15.20;99.90;;;;;;5016644;28;20277;-87
2023/10/26 12:45:17;;;;;;;1.10;1.00;;;15.30;99.90;;;;;;5040698;28;20195;-88
2023/10/26 12:47:44;;;;;;;0.88;0.88;;;15.30;99.90;;;;;;5031542;28;20210;-87
2023/10/26 12:50:11;;;;;;;1.50;0.90;;;15.20;99.90;;;;;;5028152;28;20217;-87
2023/10/26 12:52:39;;;;;;;1.67;0.90;;;15.00;99.90;;;;;;5030447;28;20572;-87
2023/10/26 12:55:06;;;;;;;1.13;0.93;;;14.90;99.90;;;;;;5027813;28;20195;-87
2023/10/26 12:57:33;;;;;;;1.02;0.95;;;14.90;99.90;;;;;;5034339;28;20581;-87
2023/10/26 13:00:01;;;;;;;3.65;0.90;;;14.80;99.90;;;;;;5031190;28;20202;-86
2023/10/26 13:02:31;;;;;;;1.65;0.90;;;14.70;99.90;;;;;;5035300;28;20195;-87
2023/10/26 13:04:57;;;;;;;3.25;1.02;;;14.60;99.90;;;;;;5025116;28;20206;-87
2023/10/26 13:07:27;;;;;;;2.13;1.30;;;14.50;99.90;;;;;;5033561;28;20222;-86